createdAt,value
2023-03-27T00:01:21.890Z,7.20
2023-03-27T00:02:55.036Z,7.10
2023-03-27T00:04:28.450Z,7.20
2023-03-27T00:06:02.010Z,7.20
2023-03-27T00:07:37.104Z,7.20
2023-03-27T00:09:09.998Z,7.20
2023-03-27T00:10:42.936Z,7.20
2023-03-27T00:12:15.792Z,7.20
2023-03-27T00:13:51.124Z,7.20
2023-03-27T00:15:24.513Z,7.10
2023-03-27T00:17:00.074Z,7.10
2023-03-27T00:18:34.255Z,7.20
2023-03-27T00:20:06.664Z,7.10
2023-03-27T00:21:40.582Z,7.10
2023-03-27T00:23:14.797Z,7.10
2023-03-27T00:24:46.578Z,7.10
2023-03-27T00:26:21.404Z,7.10
2023-03-27T00:27:56.282Z,7.10
2023-03-27T00:29:29.005Z,7.10
2023-03-27T00:31:02.022Z,7.10
2023-03-27T00:32:36.202Z,7.10
2023-03-27T00:34:08.898Z,7.10
2023-03-27T00:35:45.414Z,7.10
2023-03-27T00:37:18.285Z,7.00
2023-03-27T00:38:53.100Z,6.90
2023-03-27T00:40:25.859Z,6.90
2023-03-27T00:41:58.594Z,6.90
2023-03-27T00:43:33.911Z,6.80
2023-03-27T00:45:07.940Z,6.80
2023-03-27T00:46:45.358Z,6.80
2023-03-27T00:48:18.772Z,6.70
2023-03-27T00:49:52.098Z,6.60
2023-03-27T00:51:27.724Z,6.60
2023-03-27T00:53:03.228Z,6.60
2023-03-27T00:54:40.411Z,6.50
2023-03-27T00:56:13.463Z,6.50
2023-03-27T00:57:49.751Z,6.40
2023-03-27T00:59:25.607Z,6.40
2023-03-27T01:00:58.087Z,6.40
2023-03-27T01:02:31.207Z,6.40
2023-03-27T01:04:06.546Z,6.40
2023-03-27T01:05:39.376Z,6.40
2023-03-27T01:07:13.091Z,6.40
2023-03-27T01:08:46.116Z,6.40
2023-03-27T01:10:20.615Z,6.40
2023-03-27T01:12:07.671Z,6.40
2023-03-27T01:13:56.745Z,6.50
2023-03-27T01:15:38.415Z,6.50
2023-03-27T01:17:33.348Z,6.50
2023-03-27T01:19:29.338Z,6.50
2023-03-27T01:21:40.176Z,6.50
2023-03-27T01:23:59.559Z,6.40
2023-03-27T01:26:11.957Z,6.10
2023-03-27T01:28:12.371Z,6.00
2023-03-27T01:30:05.769Z,5.90
2023-03-27T01:31:52.683Z,5.80
2023-03-27T01:33:49.821Z,5.80
2023-03-27T01:35:48.023Z,5.70
2023-03-27T01:37:57.220Z,5.70
2023-03-27T01:39:40.055Z,5.60
2023-03-27T01:41:14.826Z,5.60
2023-03-27T01:42:52.512Z,5.60
2023-03-27T01:44:42.570Z,5.60
2023-03-27T01:46:23.728Z,5.60
2023-03-27T01:48:05.219Z,5.60
2023-03-27T01:49:42.353Z,5.60
2023-03-27T01:51:21.428Z,5.50
2023-03-27T01:52:59.934Z,5.50
2023-03-27T01:54:36.618Z,5.50
2023-03-27T01:56:18.297Z,5.50
2023-03-27T01:58:00.744Z,5.40
2023-03-27T01:59:39.309Z,5.40
2023-03-27T02:01:11.753Z,5.40
2023-03-27T02:02:49.054Z,5.40
2023-03-27T02:04:26.463Z,5.50
2023-03-27T02:06:04.906Z,5.50
2023-03-27T02:07:40.801Z,5.60
2023-03-27T02:09:17.369Z,5.60
2023-03-27T02:10:56.864Z,5.50
2023-03-27T02:12:32.721Z,5.50
2023-03-27T02:14:09.023Z,5.40
2023-03-27T02:15:44.833Z,5.50
2023-03-27T02:17:20.346Z,5.40
2023-03-27T02:18:58.104Z,5.30
2023-03-27T02:20:31.305Z,5.30
2023-03-27T02:22:04.362Z,5.30
2023-03-27T02:23:38.316Z,5.30
2023-03-27T02:25:28.287Z,5.30
2023-03-27T02:27:12.731Z,5.30
2023-03-27T02:29:03.420Z,5.40
2023-03-27T02:30:40.285Z,5.40
2023-03-27T02:32:24.959Z,5.50
2023-03-27T02:34:21.838Z,5.40
2023-03-27T02:36:00.297Z,5.40
2023-03-27T02:37:43.952Z,5.40
2023-03-27T02:39:22.896Z,5.40
2023-03-27T02:41:06.257Z,5.50
2023-03-27T02:42:50.145Z,5.50
2023-03-27T02:44:31.084Z,5.40
2023-03-27T02:46:10.423Z,5.40
2023-03-27T02:47:46.613Z,5.40
2023-03-27T02:49:24.924Z,5.30
2023-03-27T02:51:02.043Z,5.30
2023-03-27T02:52:38.583Z,5.30
2023-03-27T02:54:15.842Z,5.20
2023-03-27T02:55:52.605Z,5.20
2023-03-27T02:57:31.627Z,5.10
2023-03-27T02:59:09.923Z,5.10
2023-03-27T03:00:48.838Z,5.10
2023-03-27T03:02:26.777Z,5.10
2023-03-27T03:04:00.816Z,5.00
2023-03-27T03:05:37.206Z,5.10
2023-03-27T03:07:09.877Z,5.10
2023-03-27T03:08:43.181Z,5.10
2023-03-27T03:10:16.056Z,5.10
2023-03-27T03:11:51.330Z,5.10
2023-03-27T03:13:24.054Z,5.10
2023-03-27T03:14:58.097Z,5.00
2023-03-27T03:16:30.357Z,5.00
2023-03-27T03:18:03.194Z,5.00
2023-03-27T03:19:36.044Z,5.00
2023-03-27T03:21:08.794Z,5.00
2023-03-27T03:22:41.986Z,5.00
2023-03-27T03:24:14.672Z,5.00
2023-03-27T03:25:47.842Z,5.00
2023-03-27T03:27:21.007Z,5.00
2023-03-27T03:29:00.601Z,5.00
2023-03-27T03:30:37.406Z,5.00
2023-03-27T03:32:10.153Z,5.00
2023-03-27T03:33:42.867Z,5.00
2023-03-27T03:35:15.028Z,5.00
2023-03-27T03:36:49.557Z,5.00
2023-03-27T03:38:25.072Z,4.90
2023-03-27T03:39:57.042Z,4.90
2023-03-27T03:41:29.758Z,4.80
2023-03-27T03:43:02.448Z,4.70
2023-03-27T03:44:37.078Z,4.70
2023-03-27T03:46:11.223Z,4.70
2023-03-27T03:47:43.991Z,4.60
2023-03-27T03:49:16.785Z,4.60
2023-03-27T03:50:50.589Z,4.60
2023-03-27T03:52:23.341Z,4.50
2023-03-27T03:53:56.209Z,4.50
2023-03-27T03:55:29.478Z,4.50
2023-03-27T03:57:03.100Z,4.50
2023-03-27T03:58:36.153Z,4.50
2023-03-27T04:00:08.832Z,4.50
2023-03-27T04:01:43.154Z,4.50
2023-03-27T04:03:16.394Z,4.50
2023-03-27T04:04:49.135Z,4.40
2023-03-27T04:06:25.206Z,4.40
2023-03-27T04:07:59.246Z,4.40
2023-03-27T04:09:32.693Z,4.40
2023-03-27T04:11:06.357Z,4.40
2023-03-27T04:12:39.159Z,4.30
2023-03-27T04:14:11.836Z,4.30
2023-03-27T04:15:44.894Z,4.30
2023-03-27T04:17:19.224Z,4.20
2023-03-27T04:18:54.587Z,4.20
2023-03-27T04:20:27.557Z,4.20
2023-03-27T04:22:02.399Z,4.10
2023-03-27T04:23:35.139Z,4.10
2023-03-27T04:25:09.136Z,4.10
2023-03-27T04:26:43.318Z,4.00
2023-03-27T04:28:16.796Z,4.00
2023-03-27T04:29:49.596Z,4.00
2023-03-27T04:31:22.393Z,3.90
2023-03-27T04:32:59.924Z,3.90
2023-03-27T04:34:32.793Z,3.90
2023-03-27T04:36:07.777Z,3.90
2023-03-27T04:37:41.700Z,3.90
2023-03-27T04:39:16.600Z,3.90
2023-03-27T04:40:49.214Z,3.80
2023-03-27T04:42:23.417Z,3.80
2023-03-27T04:43:56.685Z,3.80
2023-03-27T04:45:28.445Z,3.80
2023-03-27T04:47:02.012Z,3.80
2023-03-27T04:48:38.313Z,3.80
2023-03-27T04:50:12.814Z,3.70
2023-03-27T04:51:45.580Z,3.70
2023-03-27T04:53:20.305Z,3.70
2023-03-27T04:54:53.038Z,3.60
2023-03-27T04:56:25.772Z,3.60
2023-03-27T04:58:02.346Z,3.60
2023-03-27T04:59:34.308Z,3.60
2023-03-27T05:01:07.209Z,3.50
2023-03-27T05:02:40.024Z,3.50
2023-03-27T05:04:14.326Z,3.50
2023-03-27T05:05:49.549Z,3.50
2023-03-27T05:07:21.458Z,3.50
2023-03-27T05:08:54.300Z,3.50
2023-03-27T05:10:27.162Z,3.50
2023-03-27T05:11:58.909Z,3.50
2023-03-27T05:13:31.690Z,3.50
2023-03-27T05:15:06.254Z,3.40
2023-03-27T05:16:40.376Z,3.50
2023-03-27T05:18:13.206Z,3.50
2023-03-27T05:19:47.373Z,3.50
2023-03-27T05:21:19.393Z,3.40
2023-03-27T05:22:55.365Z,3.40
2023-03-27T05:24:28.265Z,3.40
2023-03-27T05:26:01.133Z,3.40
2023-03-27T05:27:34.260Z,3.40
2023-03-27T05:29:08.727Z,3.50
2023-03-27T05:30:42.988Z,3.40
2023-03-27T05:32:16.359Z,3.50
2023-03-27T05:33:49.170Z,3.50
2023-03-27T05:35:23.789Z,3.60
2023-03-27T05:36:57.827Z,3.60
2023-03-27T05:38:31.378Z,3.60
2023-03-27T05:40:04.348Z,3.60
2023-03-27T05:41:37.061Z,3.60
2023-03-27T05:43:09.934Z,3.60
2023-03-27T05:44:43.881Z,3.50
2023-03-27T05:46:20.876Z,3.50
2023-03-27T05:47:56.065Z,3.50
2023-03-27T05:49:28.763Z,3.50
2023-03-27T05:51:02.984Z,3.50
2023-03-27T05:52:35.657Z,3.50
2023-03-27T05:54:08.398Z,3.50
2023-03-27T05:55:41.665Z,3.50
2023-03-27T05:57:14.404Z,3.50
2023-03-27T05:58:47.160Z,3.40
2023-03-27T06:00:25.413Z,3.40
2023-03-27T06:01:58.880Z,3.40
2023-03-27T06:03:34.847Z,3.40
2023-03-27T06:05:13.324Z,3.40
2023-03-27T06:06:47.451Z,3.40
2023-03-27T06:08:20.693Z,3.40
2023-03-27T06:09:53.773Z,3.40
2023-03-27T06:11:26.569Z,3.40
2023-03-27T06:13:01.184Z,3.30
2023-03-27T06:14:34.031Z,3.30
2023-03-27T06:16:08.199Z,3.30
2023-03-27T06:17:42.179Z,3.30
2023-03-27T06:19:14.884Z,3.20
2023-03-27T06:20:47.619Z,3.20
2023-03-27T06:22:21.685Z,3.20
2023-03-27T06:23:56.231Z,3.20
2023-03-27T06:25:32.020Z,3.20
2023-03-27T06:27:04.905Z,3.20
2023-03-27T06:28:39.103Z,3.20
2023-03-27T06:30:12.850Z,3.20
2023-03-27T06:31:46.119Z,3.20
2023-03-27T06:33:19.195Z,3.20
2023-03-27T06:34:52.930Z,3.20
2023-03-27T06:36:27.517Z,3.20
2023-03-27T06:38:03.678Z,3.20
2023-03-27T06:39:37.347Z,3.20
2023-03-27T06:41:10.376Z,3.20
2023-03-27T06:42:50.609Z,3.20
2023-03-27T06:44:23.367Z,3.20
2023-03-27T06:45:58.130Z,3.30
2023-03-27T06:47:30.183Z,3.30
2023-03-27T06:49:02.991Z,3.30
2023-03-27T06:50:36.009Z,3.30
2023-03-27T06:52:08.874Z,3.40
2023-03-27T06:53:43.376Z,3.40
2023-03-27T06:55:16.974Z,3.40
2023-03-27T06:56:50.257Z,3.50
2023-03-27T06:58:23.082Z,3.40
2023-03-27T06:59:55.840Z,3.50
2023-03-27T07:01:28.644Z,3.50
2023-03-27T07:03:03.219Z,3.50
2023-03-27T07:04:35.954Z,3.60
2023-03-27T07:06:10.994Z,3.60
2023-03-27T07:07:44.510Z,3.60
2023-03-27T07:09:19.103Z,3.60
2023-03-27T07:11:10.797Z,3.60
2023-03-27T07:12:46.662Z,3.60
2023-03-27T07:14:19.525Z,3.70
2023-03-27T07:15:52.378Z,3.70
2023-03-27T07:17:27.982Z,3.70
2023-03-27T07:19:05.210Z,3.70
2023-03-27T07:20:38.177Z,3.70
2023-03-27T07:22:10.989Z,3.80
2023-03-27T07:23:43.762Z,3.80
2023-03-27T07:25:18.159Z,3.80
2023-03-27T07:26:50.919Z,3.90
2023-03-27T07:28:23.700Z,3.90
2023-03-27T07:29:58.681Z,3.90
2023-03-27T07:31:48.986Z,3.90
2023-03-27T07:33:24.356Z,3.90
2023-03-27T07:34:57.384Z,4.00
2023-03-27T07:36:30.270Z,4.00
2023-03-27T07:38:03.993Z,4.10
2023-03-27T07:39:36.703Z,4.10
2023-03-27T07:41:12.117Z,4.10
2023-03-27T07:42:46.101Z,4.10
2023-03-27T07:44:18.892Z,4.20
2023-03-27T07:45:51.624Z,4.20
2023-03-27T07:47:25.207Z,4.20
2023-03-27T07:48:58.393Z,4.30
2023-03-27T07:50:31.124Z,4.40
2023-03-27T07:52:04.490Z,4.60
2023-03-27T07:53:37.176Z,5.00
2023-03-27T07:55:12.250Z,5.30
2023-03-27T07:56:46.593Z,5.70
2023-03-27T07:58:21.284Z,6.20
2023-03-27T07:59:57.319Z,6.60
2023-03-27T08:01:30.510Z,6.80
2023-03-27T08:03:08.055Z,6.90
2023-03-27T08:04:41.110Z,6.90
2023-03-27T08:06:13.908Z,7.00
2023-03-27T08:07:47.287Z,7.20
2023-03-27T08:09:20.023Z,7.40
2023-03-27T08:10:55.516Z,7.80
2023-03-27T08:12:29.832Z,8.10
2023-03-27T08:14:03.342Z,8.40
2023-03-27T08:15:36.022Z,8.70
2023-03-27T08:17:15.755Z,8.90
2023-03-27T08:18:49.681Z,9.10
2023-03-27T08:20:23.270Z,9.40
2023-03-27T08:21:56.454Z,9.60
2023-03-27T08:23:30.907Z,9.80
2023-03-27T08:25:04.973Z,10.10
2023-03-27T08:26:38.077Z,10.30
2023-03-27T08:28:12.326Z,10.50
2023-03-27T08:29:45.080Z,10.70
2023-03-27T08:31:18.384Z,10.90
2023-03-27T08:32:51.174Z,11.00
2023-03-27T08:34:24.306Z,11.10
2023-03-27T08:35:58.211Z,11.10
2023-03-27T08:37:31.317Z,11.20
2023-03-27T08:39:04.865Z,11.30
2023-03-27T08:40:39.179Z,11.50
2023-03-27T08:42:19.104Z,11.70
2023-03-27T08:43:56.224Z,11.70
2023-03-27T08:45:33.114Z,11.70
2023-03-27T08:47:11.176Z,11.50
2023-03-27T08:48:48.362Z,11.50
2023-03-27T08:50:31.810Z,11.50
2023-03-27T08:52:07.043Z,11.60
2023-03-27T08:53:46.038Z,11.80
2023-03-27T08:55:22.293Z,12.00
2023-03-27T08:56:55.132Z,12.10
2023-03-27T08:58:27.996Z,12.20
2023-03-27T09:00:05.276Z,12.20
2023-03-27T09:01:45.370Z,12.20
2023-03-27T09:03:25.664Z,12.10
2023-03-27T09:05:04.858Z,11.90
2023-03-27T09:06:43.894Z,11.80
2023-03-27T09:08:28.799Z,11.80
2023-03-27T09:10:10.276Z,11.90
2023-03-27T09:11:52.965Z,12.00
2023-03-27T09:13:36.203Z,12.10
2023-03-27T09:15:14.247Z,12.10
2023-03-27T09:16:50.741Z,12.10
2023-03-27T09:18:28.430Z,12.20
2023-03-27T09:20:07.345Z,12.40
2023-03-27T09:21:45.502Z,12.40
2023-03-27T09:23:23.053Z,12.50
2023-03-27T09:24:59.545Z,12.70
2023-03-27T09:26:36.414Z,12.90
2023-03-27T09:28:27.222Z,13.10
2023-03-27T09:30:18.537Z,13.00
2023-03-27T09:31:54.962Z,12.80
2023-03-27T09:33:27.960Z,12.70
2023-03-27T09:35:00.708Z,12.60
2023-03-27T09:36:35.641Z,12.60
2023-03-27T09:38:29.437Z,12.60
2023-03-27T09:40:03.347Z,12.70
2023-03-27T09:41:41.283Z,12.60
2023-03-27T09:43:18.156Z,12.40
2023-03-27T09:44:55.987Z,12.40
2023-03-27T09:46:29.813Z,12.40
2023-03-27T09:48:07.440Z,12.30
2023-03-27T09:49:44.997Z,12.20
2023-03-27T09:51:48.349Z,12.10
2023-03-27T09:53:23.022Z,12.10
2023-03-27T09:54:56.804Z,12.10
2023-03-27T09:56:29.797Z,12.00
2023-03-27T09:58:14.048Z,11.90
2023-03-27T09:59:58.643Z,11.70
2023-03-27T10:01:34.269Z,11.50
2023-03-27T10:03:16.705Z,11.30
2023-03-27T10:04:59.952Z,11.00
2023-03-27T10:06:38.732Z,10.80
2023-03-27T10:08:43.613Z,10.60
2023-03-27T10:10:19.829Z,10.30
2023-03-27T10:12:01.042Z,10.00
2023-03-27T10:13:34.426Z,9.80
2023-03-27T10:15:23.837Z,9.70
2023-03-27T10:16:57.301Z,9.50
2023-03-27T10:18:33.739Z,9.20
2023-03-27T10:20:13.227Z,9.00
2023-03-27T10:21:46.469Z,8.90
2023-03-27T10:23:25.662Z,8.90
2023-03-27T10:25:00.253Z,9.00
2023-03-27T10:26:38.479Z,9.00
2023-03-27T10:28:18.802Z,8.90
2023-03-27T10:29:51.496Z,9.00
2023-03-27T10:31:30.986Z,9.10
2023-03-27T10:33:04.188Z,9.20
2023-03-27T10:34:43.379Z,9.20
2023-03-27T10:36:16.365Z,9.30
2023-03-27T10:37:51.256Z,9.30
2023-03-27T10:39:29.314Z,9.30
2023-03-27T10:41:07.793Z,9.40
2023-03-27T10:42:40.758Z,9.50
2023-03-27T10:44:17.690Z,9.70
2023-03-27T10:45:53.665Z,9.90
2023-03-27T10:47:28.730Z,10.10
2023-03-27T10:49:08.784Z,10.30
2023-03-27T10:50:53.072Z,10.40
2023-03-27T10:52:32.027Z,10.60
2023-03-27T10:54:11.014Z,10.80
2023-03-27T10:55:56.430Z,10.90
2023-03-27T10:57:31.485Z,10.90
2023-03-27T10:59:09.588Z,10.90
2023-03-27T11:00:49.493Z,10.90
2023-03-27T11:02:31.524Z,10.80
2023-03-27T11:04:09.565Z,10.60
2023-03-27T11:05:46.674Z,10.60
2023-03-27T11:07:25.641Z,10.60
2023-03-27T11:09:05.486Z,10.60
2023-03-27T11:10:41.769Z,10.70
2023-03-27T11:12:14.974Z,10.70
2023-03-27T11:13:50.029Z,10.80
2023-03-27T11:15:27.666Z,10.90
2023-03-27T11:17:04.840Z,11.00
2023-03-27T11:18:43.112Z,11.10
2023-03-27T11:20:23.246Z,11.20
2023-03-27T11:22:04.070Z,11.20
2023-03-27T11:23:40.492Z,11.40
2023-03-27T11:25:20.782Z,11.50
2023-03-27T11:27:03.076Z,11.50
2023-03-27T11:28:42.781Z,11.60
2023-03-27T11:30:35.442Z,11.60
2023-03-27T11:32:19.460Z,11.60
2023-03-27T11:33:56.068Z,11.60
2023-03-27T11:35:34.225Z,11.60
2023-03-27T11:37:17.486Z,11.60
2023-03-27T11:39:07.052Z,11.60
2023-03-27T11:40:43.017Z,11.70
2023-03-27T11:42:19.769Z,11.70
2023-03-27T11:43:52.678Z,11.80
2023-03-27T11:45:27.701Z,11.80
2023-03-27T11:47:18.750Z,11.80
2023-03-27T11:49:14.945Z,11.90
2023-03-27T11:50:53.282Z,11.90
2023-03-27T11:52:39.240Z,11.80
2023-03-27T11:54:28.325Z,11.90
2023-03-27T11:56:14.376Z,11.80
2023-03-27T11:58:04.189Z,11.70
2023-03-27T12:00:12.080Z,11.60
2023-03-27T12:01:53.412Z,11.30
2023-03-27T12:03:45.086Z,11.20
2023-03-27T12:05:24.964Z,10.90
2023-03-27T12:07:12.218Z,10.80
2023-03-27T12:09:03.655Z,10.70
2023-03-27T12:10:38.391Z,10.70
2023-03-27T12:12:40.683Z,10.70
2023-03-27T12:14:40.969Z,10.60
2023-03-27T12:16:48.146Z,10.70
2023-03-27T12:18:36.263Z,10.60
2023-03-27T12:20:58.689Z,10.50
2023-03-27T12:22:43.528Z,10.50
2023-03-27T12:24:33.836Z,10.50
2023-03-27T12:26:16.835Z,10.30
2023-03-27T12:28:02.150Z,10.00
2023-03-27T12:29:48.438Z,9.70
2023-03-27T12:31:49.411Z,9.40
2023-03-27T12:33:48.734Z,9.20
2023-03-27T12:35:23.721Z,9.00
2023-03-27T12:36:59.270Z,8.90
2023-03-27T12:38:34.777Z,8.70
2023-03-27T12:40:27.921Z,8.60
2023-03-27T12:42:00.674Z,8.50
2023-03-27T12:43:39.535Z,8.50
2023-03-27T12:45:17.902Z,8.40
2023-03-27T12:47:08.923Z,8.50
2023-03-27T12:48:55.872Z,8.50
2023-03-27T12:50:32.623Z,8.60
2023-03-27T12:52:06.135Z,8.70
2023-03-27T12:53:51.007Z,8.70
2023-03-27T12:55:34.109Z,8.80
2023-03-27T12:57:15.404Z,8.90
2023-03-27T12:58:51.338Z,8.90
2023-03-27T13:00:27.909Z,9.00
2023-03-27T13:02:50.959Z,9.00
2023-03-27T13:04:54.033Z,9.10
2023-03-27T13:06:36.343Z,9.10
2023-03-27T13:08:37.451Z,9.20
2023-03-27T13:10:27.291Z,9.30
2023-03-27T13:12:20.328Z,9.30
2023-03-27T13:14:21.379Z,9.40
2023-03-27T13:16:13.893Z,9.50
2023-03-27T13:18:03.960Z,9.60
2023-03-27T13:19:46.438Z,9.60
2023-03-27T13:21:29.617Z,9.60
2023-03-27T13:23:26.658Z,9.60
2023-03-27T13:25:18.464Z,9.70
2023-03-27T13:27:03.787Z,9.70
2023-03-27T13:28:42.241Z,9.60
2023-03-27T13:30:42.806Z,9.60
2023-03-27T13:32:33.067Z,9.60
2023-03-27T13:34:15.605Z,9.60
2023-03-27T13:36:03.495Z,9.70
2023-03-27T13:38:00.704Z,9.70
2023-03-27T13:39:41.220Z,9.70
2023-03-27T13:41:52.734Z,9.80
2023-03-27T13:43:28.443Z,9.80
2023-03-27T13:45:08.241Z,9.80
2023-03-27T13:46:48.193Z,9.80
2023-03-27T13:48:57.423Z,9.80
2023-03-27T13:50:52.574Z,9.80
2023-03-27T13:52:57.440Z,9.80
2023-03-27T13:55:16.565Z,9.70
2023-03-27T13:57:01.756Z,9.80
2023-03-27T13:58:59.212Z,9.80
2023-03-27T14:00:48.804Z,9.90
2023-03-27T14:02:40.404Z,9.90
2023-03-27T14:04:29.446Z,9.90
2023-03-27T14:06:21.597Z,9.80
2023-03-27T14:08:07.939Z,9.80
2023-03-27T14:09:54.854Z,9.70
2023-03-27T14:11:54.659Z,9.70
2023-03-27T14:13:38.150Z,9.60
2023-03-27T14:15:33.766Z,9.60
2023-03-27T14:17:34.592Z,9.60
2023-03-27T14:19:38.802Z,9.60
2023-03-27T14:21:27.611Z,9.50
2023-03-27T14:23:07.398Z,9.50
2023-03-27T14:24:44.640Z,9.40
2023-03-27T14:26:21.361Z,9.40
2023-03-27T14:27:55.443Z,9.40
2023-03-27T14:29:28.860Z,9.40
2023-03-27T14:31:06.939Z,9.40
2023-03-27T14:32:42.858Z,9.40
2023-03-27T14:34:22.434Z,9.40
2023-03-27T14:35:58.179Z,9.40
2023-03-27T14:37:35.897Z,9.40
2023-03-27T14:39:16.727Z,9.40
2023-03-27T14:40:51.919Z,9.40
2023-03-27T14:42:32.073Z,9.40
2023-03-27T14:44:05.852Z,9.30
2023-03-27T14:45:40.630Z,9.30
2023-03-27T14:47:17.699Z,9.20
2023-03-27T14:48:55.994Z,9.10
2023-03-27T14:50:30.840Z,9.10
2023-03-27T14:52:07.622Z,9.00
2023-03-27T14:53:44.106Z,9.00
2023-03-27T14:55:18.858Z,9.00
2023-03-27T14:56:52.156Z,9.00
2023-03-27T14:58:26.114Z,9.10
2023-03-27T14:59:59.138Z,9.10
2023-03-27T15:01:32.240Z,9.10
2023-03-27T15:03:11.295Z,9.20
2023-03-27T15:04:45.541Z,9.20
2023-03-27T15:06:21.063Z,9.20
2023-03-27T15:07:55.504Z,9.20
2023-03-27T15:09:28.189Z,9.20
2023-03-27T15:11:01.392Z,9.10
2023-03-27T15:12:35.132Z,9.10
2023-03-27T15:14:20.576Z,9.10
2023-03-27T15:15:56.931Z,9.10
2023-03-27T15:17:31.619Z,9.00
2023-03-27T15:19:12.211Z,9.00
2023-03-27T15:20:47.540Z,9.00
2023-03-27T15:22:23.773Z,9.00
2023-03-27T15:24:01.925Z,8.90
2023-03-27T15:25:43.722Z,8.90
2023-03-27T15:27:20.965Z,8.80
2023-03-27T15:29:01.610Z,8.80
2023-03-27T15:30:37.447Z,8.90
2023-03-27T15:32:14.556Z,8.80
2023-03-27T15:33:52.827Z,8.80
2023-03-27T15:35:31.142Z,8.80
2023-03-27T15:37:10.966Z,8.80
2023-03-27T15:38:44.884Z,8.80
2023-03-27T15:40:42.177Z,8.80
2023-03-27T15:42:16.252Z,8.80
2023-03-27T15:43:49.280Z,8.70
2023-03-27T15:45:24.180Z,8.70
2023-03-27T15:46:58.669Z,8.70
2023-03-27T15:48:35.029Z,8.70
2023-03-27T15:50:17.711Z,8.70
2023-03-27T15:51:50.841Z,8.60
2023-03-27T15:53:36.941Z,8.50
2023-03-27T15:55:10.883Z,8.50
2023-03-27T15:56:45.379Z,8.50
2023-03-27T15:58:24.843Z,8.50
2023-03-27T16:00:04.416Z,8.40
2023-03-27T16:01:39.063Z,8.40
2023-03-27T16:03:19.316Z,8.40
2023-03-27T16:04:55.012Z,8.40
2023-03-27T16:06:30.850Z,8.40
2023-03-27T16:08:03.792Z,8.40
2023-03-27T16:09:42.984Z,8.30
2023-03-27T16:11:33.663Z,8.30
2023-03-27T16:13:09.009Z,8.30
2023-03-27T16:14:44.928Z,8.20
2023-03-27T16:16:23.487Z,8.20
2023-03-27T16:17:57.962Z,8.10
2023-03-27T16:19:42.725Z,8.10
2023-03-27T16:21:15.704Z,8.10
2023-03-27T16:22:48.582Z,8.10
2023-03-27T16:24:21.527Z,8.00
2023-03-27T16:25:56.703Z,8.00
2023-03-27T16:27:33.855Z,7.90
2023-03-27T16:29:06.979Z,7.90
2023-03-27T16:30:41.414Z,7.90
2023-03-27T16:32:14.139Z,7.90
2023-03-27T16:33:47.146Z,7.90
2023-03-27T16:35:19.948Z,7.90
2023-03-27T16:36:52.774Z,7.80
2023-03-27T16:38:26.122Z,7.80
2023-03-27T16:39:59.239Z,7.80
2023-03-27T16:41:33.391Z,7.70
2023-03-27T16:43:06.355Z,7.70
2023-03-27T16:44:39.106Z,7.60
2023-03-27T16:46:18.024Z,7.50
2023-03-27T16:47:53.069Z,7.30
2023-03-27T16:49:26.244Z,7.20
2023-03-27T16:50:59.255Z,7.10
2023-03-27T16:52:32.117Z,7.00
2023-03-27T16:54:05.316Z,6.90
2023-03-27T16:55:38.071Z,6.90
2023-03-27T16:57:12.350Z,6.80
2023-03-27T16:58:45.074Z,6.80
2023-03-27T17:00:19.996Z,6.70
2023-03-27T17:01:52.714Z,6.70
2023-03-27T17:03:25.477Z,6.70
2023-03-27T17:04:58.249Z,6.80
2023-03-27T17:06:31.225Z,6.80
2023-03-27T17:08:06.724Z,6.80
2023-03-27T17:09:40.121Z,6.80
2023-03-27T17:11:14.034Z,6.80
2023-03-27T17:12:48.340Z,6.80
2023-03-27T17:14:21.409Z,6.80
2023-03-27T17:15:54.786Z,6.90
2023-03-27T17:17:30.215Z,6.90
2023-03-27T17:19:03.094Z,6.90
2023-03-27T17:20:35.841Z,6.90
2023-03-27T17:22:08.737Z,6.90
2023-03-27T17:23:43.417Z,6.90
2023-03-27T17:25:17.606Z,6.90
2023-03-27T17:26:50.381Z,6.90
2023-03-27T17:28:24.476Z,6.90
2023-03-27T17:29:57.502Z,6.80
2023-03-27T17:31:30.961Z,6.80
2023-03-27T17:33:04.942Z,6.80
2023-03-27T17:34:37.727Z,6.80
2023-03-27T17:36:11.573Z,6.80
2023-03-27T17:37:44.292Z,6.80
2023-03-27T17:39:17.027Z,6.70
2023-03-27T17:40:50.090Z,6.70
2023-03-27T17:42:24.933Z,6.70
2023-03-27T17:43:59.278Z,6.70
2023-03-27T17:45:31.980Z,6.70
2023-03-27T17:47:06.141Z,6.70
2023-03-27T17:48:38.972Z,6.60
2023-03-27T17:50:11.909Z,6.50
2023-03-27T17:51:44.584Z,6.50
2023-03-27T17:53:17.313Z,6.40
2023-03-27T17:54:50.462Z,6.40
2023-03-27T17:56:23.244Z,6.30
2023-03-27T17:58:07.756Z,6.30
2023-03-27T17:59:46.230Z,6.30
2023-03-27T18:01:21.018Z,6.30
2023-03-27T18:02:53.866Z,6.30
2023-03-27T18:04:27.063Z,6.30
2023-03-27T18:06:04.184Z,6.20
2023-03-27T18:07:36.945Z,6.20
2023-03-27T18:09:09.967Z,6.20
2023-03-27T18:10:45.053Z,6.20
2023-03-27T18:12:18.381Z,6.20
2023-03-27T18:13:52.937Z,6.20
2023-03-27T18:15:27.261Z,6.20
2023-03-27T18:17:00.107Z,6.30
2023-03-27T18:18:33.221Z,6.30
2023-03-27T18:20:10.098Z,6.30
2023-03-27T18:21:42.850Z,6.20
2023-03-27T18:23:15.576Z,6.20
2023-03-27T18:24:48.456Z,6.10
2023-03-27T18:26:21.156Z,6.10
2023-03-27T18:27:53.837Z,6.10
2023-03-27T18:29:26.628Z,6.00
2023-03-27T18:31:03.402Z,6.00
2023-03-27T18:32:36.185Z,6.00
2023-03-27T18:34:09.395Z,6.00
2023-03-27T18:35:42.879Z,5.90
2023-03-27T18:37:15.654Z,5.90
2023-03-27T18:38:49.981Z,5.90
2023-03-27T18:40:23.017Z,5.80
2023-03-27T18:41:58.572Z,5.80
2023-03-27T18:43:31.915Z,5.70
2023-03-27T18:45:05.994Z,5.70
2023-03-27T18:46:40.150Z,5.70
2023-03-27T18:48:13.199Z,5.60
2023-03-27T18:49:46.157Z,5.60
2023-03-27T18:51:19.021Z,5.50
2023-03-27T18:52:51.716Z,5.50
2023-03-27T18:54:24.448Z,5.40
2023-03-27T18:55:58.277Z,5.40
2023-03-27T18:57:31.713Z,5.40
2023-03-27T18:59:04.867Z,5.40
2023-03-27T19:00:37.867Z,5.30
2023-03-27T19:02:12.093Z,5.30
2023-03-27T19:03:44.981Z,5.30
2023-03-27T19:05:18.191Z,5.30
2023-03-27T19:06:51.077Z,5.20
2023-03-27T19:08:22.838Z,5.20
2023-03-27T19:09:55.743Z,5.20
2023-03-27T19:11:28.611Z,5.10
2023-03-27T19:13:02.061Z,5.10
2023-03-27T19:14:35.380Z,5.10
2023-03-27T19:16:14.267Z,5.00
2023-03-27T19:17:49.566Z,5.00
2023-03-27T19:19:22.898Z,5.00
2023-03-27T19:20:56.227Z,5.00
2023-03-27T19:22:29.126Z,5.00
2023-03-27T19:24:01.802Z,5.00
2023-03-27T19:25:35.234Z,5.00
2023-03-27T19:27:08.397Z,5.00
2023-03-27T19:28:57.008Z,5.00
2023-03-27T19:30:30.464Z,5.00
2023-03-27T19:32:03.181Z,5.00
2023-03-27T19:33:37.460Z,5.00
2023-03-27T19:35:10.758Z,5.00
2023-03-27T19:36:43.484Z,5.00
2023-03-27T19:38:16.675Z,5.00
2023-03-27T19:39:49.406Z,5.00
2023-03-27T19:41:22.210Z,5.00
2023-03-27T19:42:54.961Z,5.00
2023-03-27T19:44:28.022Z,5.00
2023-03-27T19:46:15.034Z,4.90
2023-03-27T19:47:49.087Z,4.90
2023-03-27T19:49:23.204Z,4.90
2023-03-27T19:50:59.487Z,4.90
2023-03-27T19:52:33.942Z,4.90
2023-03-27T19:54:07.769Z,4.90
2023-03-27T19:55:41.103Z,4.90
2023-03-27T19:57:13.933Z,4.90
2023-03-27T19:58:46.732Z,4.90
2023-03-27T20:00:19.958Z,4.90
2023-03-27T20:01:52.957Z,4.80
2023-03-27T20:03:27.357Z,4.80
2023-03-27T20:05:01.612Z,4.80
2023-03-27T20:06:34.291Z,4.80
2023-03-27T20:08:07.214Z,4.80
2023-03-27T20:09:39.945Z,4.80
2023-03-27T20:11:12.758Z,4.70
2023-03-27T20:12:45.595Z,4.70
2023-03-27T20:14:18.295Z,4.70
2023-03-27T20:15:52.435Z,4.70
2023-03-27T20:17:28.218Z,4.60
2023-03-27T20:19:04.565Z,4.60
2023-03-27T20:20:40.025Z,4.60
2023-03-27T20:22:12.728Z,4.60
2023-03-27T20:23:45.398Z,4.60
2023-03-27T20:25:18.255Z,4.50
2023-03-27T20:26:53.815Z,4.50
2023-03-27T20:28:27.331Z,4.50
2023-03-27T20:30:01.877Z,4.50
2023-03-27T20:31:34.760Z,4.40
2023-03-27T20:33:09.027Z,4.40
2023-03-27T20:34:41.824Z,4.40
2023-03-27T20:36:18.019Z,4.40
2023-03-27T20:37:56.262Z,4.40
2023-03-27T20:39:29.367Z,4.30
2023-03-27T20:41:03.583Z,4.30
2023-03-27T20:42:38.937Z,4.30
2023-03-27T20:44:15.337Z,4.30
2023-03-27T20:45:51.926Z,4.20
2023-03-27T20:47:24.908Z,4.20
2023-03-27T20:48:57.815Z,4.20
2023-03-27T20:50:30.963Z,4.20
2023-03-27T20:52:06.111Z,4.20
2023-03-27T20:53:39.857Z,4.10
2023-03-27T20:55:22.719Z,4.10
2023-03-27T20:56:59.474Z,4.10
2023-03-27T20:58:34.105Z,4.10
2023-03-27T21:00:08.709Z,4.10
2023-03-27T21:01:42.965Z,4.10
2023-03-27T21:03:16.422Z,4.00
2023-03-27T21:04:49.244Z,4.00
2023-03-27T21:06:22.086Z,4.00
2023-03-27T21:07:56.469Z,3.90
2023-03-27T21:09:29.232Z,3.90
2023-03-27T21:11:02.655Z,3.90
2023-03-27T21:12:35.452Z,3.90
2023-03-27T21:14:08.342Z,3.90
2023-03-27T21:15:41.140Z,3.90
2023-03-27T21:17:13.841Z,3.80
2023-03-27T21:18:46.785Z,3.90
2023-03-27T21:20:19.673Z,3.80
2023-03-27T21:21:52.484Z,3.80
2023-03-27T21:23:26.571Z,3.70
2023-03-27T21:24:59.375Z,3.70
2023-03-27T21:26:32.083Z,3.70
2023-03-27T21:28:04.940Z,3.70
2023-03-27T21:29:38.000Z,3.70
2023-03-27T21:31:11.600Z,3.70